Duhring, West Virginia
Current Conditions -  °F | °C
As of 3:00 PM on Monday 26 Jan 2015 (Local Time) from KBLF Reporting Station
Light Snow Light Snow  
Wind Chill: 20°   Ceiling: 700
Heat Index: 30°   Visibility: 7mi
Dew Point: 25°   Wind: 14mph
Humidity: 82%   Direction: 270°W
Pressure: 29.65"   Gusts: 22mph
Location:  37.3892°N, 81.2383°W
Report Text: KBLF 262000Z AUTO 27012G19KT 7SM -SN OVC007 M01/M04 A2965 RMK AO2 CIG 005V010 P0000 T10111039
Loading
Personal Weather Stations






























Interactive Weather Map New forecast layout! Learn more

10-Day Weather Forecast

Advertisements
Track Severe Weather on mobile